sensor_id;sensor_type;location;lat;lon;timestamp;pressure;altitude;pressure_sealevel;temperature;humidity
29907;BME280;16776;50.958;10.994;2023-02-14T00:01:35;100475.97;;;2.02;100.00
29907;BME280;16776;50.958;10.994;2023-02-14T00:04:02;100473.38;;;2.01;100.00
29907;BME280;16776;50.958;10.994;2023-02-14T00:06:30;100482.75;;;2.02;100.00
29907;BME280;16776;50.958;10.994;2023-02-14T00:08:59;100478.31;;;1.98;99.99
29907;BME280;16776;50.958;10.994;2023-02-14T00:11:26;100480.03;;;1.97;99.93
29907;BME280;16776;50.958;10.994;2023-02-14T00:13:54;100477.50;;;1.97;100.00
29907;BME280;16776;50.958;10.994;2023-02-14T00:16:50;100475.56;;;1.92;100.00
29907;BME280;16776;50.958;10.994;2023-02-14T00:19:18;100472.22;;;1.93;100.00
29907;BME280;16776;50.958;10.994;2023-02-14T00:21:45;100472.19;;;1.91;100.00
29907;BME280;16776;50.958;10.994;2023-02-14T00:24:14;100473.03;;;1.92;100.00
29907;BME280;16776;50.958;10.994;2023-02-14T00:26:41;100483.16;;;1.90;100.00
29907;BME280;16776;50.958;10.994;2023-02-14T00:29:12;100479.84;;;1.93;100.00
29907;BME280;16776;50.958;10.994;2023-02-14T00:31:39;100481.41;;;1.89;100.00
29907;BME280;16776;50.958;10.994;2023-02-14T00:34:06;100473.63;;;1.84;99.87
29907;BME280;16776;50.958;10.994;2023-02-14T00:36:33;100472.69;;;1.82;99.91
29907;BME280;16776;50.958;10.994;2023-02-14T00:39:01;100476.75;;;1.77;99.87
29907;BME280;16776;50.958;10.994;2023-02-14T00:41:27;100482.50;;;1.73;99.34
29907;BME280;16776;50.958;10.994;2023-02-14T00:43:54;100490.00;;;1.70;99.42
29907;BME280;16776;50.958;10.994;2023-02-14T00:46:22;100489.94;;;1.69;99.34
29907;BME280;16776;50.958;10.994;2023-02-14T00:48:50;100477.00;;;1.63;100.00
29907;BME280;16776;50.958;10.994;2023-02-14T00:51:17;100478.50;;;1.58;100.00
29907;BME280;16776;50.958;10.994;2023-02-14T00:53:45;100486.78;;;1.54;99.81
29907;BME280;16776;50.958;10.994;2023-02-14T00:56:12;100485.81;;;1.50;99.21
29907;BME280;16776;50.958;10.994;2023-02-14T00:58:39;100484.81;;;1.47;99.75
29907;BME280;16776;50.958;10.994;2023-02-14T01:01:05;100483.84;;;1.43;99.52
29907;BME280;16776;50.958;10.994;2023-02-14T01:03:34;100482.09;;;1.42;99.57
29907;BME280;16776;50.958;10.994;2023-02-14T01:06:02;100487.88;;;1.38;99.51
29907;BME280;16776;50.958;10.994;2023-02-14T01:08:29;100485.09;;;1.32;99.37
29907;BME280;16776;50.958;10.994;2023-02-14T01:10:56;100489.31;;;1.31;99.65
29907;BME280;16776;50.958;10.994;2023-02-14T01:13:22;100483.22;;;1.28;98.94
29907;BME280;16776;50.958;10.994;2023-02-14T01:15:50;100488.13;;;1.23;99.31
29907;BME280;16776;50.958;10.994;2023-02-14T01:18:18;100487.94;;;1.19;99.29
29907;BME280;16776;50.958;10.994;2023-02-14T01:20:46;100490.31;;;1.14;98.57
29907;BME280;16776;50.958;10.994;2023-02-14T01:23:12;100483.19;;;1.06;98.63
29907;BME280;16776;50.958;10.994;2023-02-14T01:25:39;100484.59;;;0.99;98.91
29907;BME280;16776;50.958;10.994;2023-02-14T01:28:06;100468.69;;;0.84;98.72
29907;BME280;16776;50.958;10.994;2023-02-14T01:30:32;100474.63;;;0.84;98.41
29907;BME280;16776;50.958;10.994;2023-02-14T01:32:59;100488.72;;;0.78;98.30
29907;BME280;16776;50.958;10.994;2023-02-14T01:35:26;100481.72;;;0.72;98.46
29907;BME280;16776;50.958;10.994;2023-02-14T01:37:54;100482.41;;;0.68;98.76
29907;BME280;16776;50.958;10.994;2023-02-14T01:40:21;100477.81;;;0.59;98.45
29907;BME280;16776;50.958;10.994;2023-02-14T01:42:47;100481.75;;;0.53;98.62
29907;BME280;16776;50.958;10.994;2023-02-14T01:45:16;100481.56;;;0.48;98.71
29907;BME280;16776;50.958;10.994;2023-02-14T01:47:45;100476.31;;;0.44;98.56
29907;BME280;16776;50.958;10.994;2023-02-14T01:50:17;100465.59;;;0.32;98.95
29907;BME280;16776;50.958;10.994;2023-02-14T01:52:49;100475.88;;;0.35;98.96
29907;BME280;16776;50.958;10.994;2023-02-14T01:55:20;100478.34;;;0.33;99.20
29907;BME280;16776;50.958;10.994;2023-02-14T01:57:52;100475.88;;;0.35;99.63
29907;BME280;16776;50.958;10.994;2023-02-14T02:00:20;100475.81;;;0.33;99.61
29907;BME280;16776;50.958;10.994;2023-02-14T02:03:06;100478.44;;;0.35;99.92
29907;BME280;16776;50.958;10.994;2023-02-14T02:05:35;100479.41;;;0.38;100.00
29907;BME280;16776;50.958;10.994;2023-02-14T02:08:03;100472.69;;;0.39;99.98
29907;BME280;16776;50.958;10.994;2023-02-14T02:10:31;100468.63;;;0.42;99.99
29907;BME280;16776;50.958;10.994;2023-02-14T02:13:02;100471.22;;;0.44;99.83
29907;BME280;16776;50.958;10.994;2023-02-14T02:15:38;100477.13;;;0.44;100.00
29907;BME280;16776;50.958;10.994;2023-02-14T02:18:14;100472.94;;;0.45;99.74
29907;BME280;16776;50.958;10.994;2023-02-14T02:21:02;100480.63;;;0.46;99.34
29907;BME280;16776;50.958;10.994;2023-02-14T02:30:11;100473.44;;;0.36;99.84
29907;BME280;16776;50.958;10.994;2023-02-14T02:33:11;100463.03;;;0.30;99.79
29907;BME280;16776;50.958;10.994;2023-02-14T02:35:56;100464.53;;;0.27;99.77
29907;BME280;16776;50.958;10.994;2023-02-14T02:38:51;100456.88;;;0.25;99.88
29907;BME280;16776;50.958;10.994;2023-02-14T02:41:29;100460.84;;;0.18;99.58
29907;BME280;16776;50.958;10.994;2023-02-14T02:44:03;100461.47;;;0.14;99.84
29907;BME280;16776;50.958;10.994;2023-02-14T02:46:36;100460.59;;;0.14;99.86
29907;BME280;16776;50.958;10.994;2023-02-14T02:49:22;100457.16;;;0.12;99.87
29907;BME280;16776;50.958;10.994;2023-02-14T02:52:13;100460.41;;;0.09;99.79
29907;BME280;16776;50.958;10.994;2023-02-14T02:55:05;100457.69;;;0.05;99.63
29907;BME280;16776;50.958;10.994;2023-02-14T02:57:37;100460.22;;;0.05;99.86
29907;BME280;16776;50.958;10.994;2023-02-14T03:00:05;100460.06;;;0.02;100.00
29907;BME280;16776;50.958;10.994;2023-02-14T03:02:35;100447.06;;;-0.06;100.00
29907;BME280;16776;50.958;10.994;2023-02-14T03:05:24;100460.94;;;0.02;100.00
29907;BME280;16776;50.958;10.994;2023-02-14T03:07:54;100465.22;;;0.03;100.00
29907;BME280;16776;50.958;10.994;2023-02-14T03:10:22;100460.81;;;-0.01;99.91
29907;BME280;16776;50.958;10.994;2023-02-14T03:16:06;100466.16;;;0.05;100.00
29907;BME280;16776;50.958;10.994;2023-02-14T03:18:43;100461.91;;;0.06;99.59
29907;BME280;16776;50.958;10.994;2023-02-14T03:21:19;100465.88;;;-0.01;99.83
29907;BME280;16776;50.958;10.994;2023-02-14T03:23:55;100467.47;;;-0.03;99.91
29907;BME280;16776;50.958;10.994;2023-02-14T03:26:27;100463.97;;;-0.05;99.64
29907;BME280;16776;50.958;10.994;2023-02-14T03:29:00;100461.34;;;-0.08;99.70
29907;BME280;16776;50.958;10.994;2023-02-14T03:31:34;100465.44;;;-0.10;99.67
29907;BME280;16776;50.958;10.994;2023-02-14T03:34:06;100463.72;;;-0.11;100.00
29907;BME280;16776;50.958;10.994;2023-02-14T03:36:38;100456.78;;;-0.15;99.84
29907;BME280;16776;50.958;10.994;2023-02-14T03:39:12;100460.22;;;-0.13;99.98
29907;BME280;16776;50.958;10.994;2023-02-14T03:41:45;100456.78;;;-0.15;99.96
29907;BME280;16776;50.958;10.994;2023-02-14T03:44:16;100444.91;;;-0.16;99.81
29907;BME280;16776;50.958;10.994;2023-02-14T03:46:46;100449.03;;;-0.18;99.77
29907;BME280;16776;50.958;10.994;2023-02-14T03:49:17;100445.63;;;-0.19;99.74
29907;BME280;16776;50.958;10.994;2023-02-14T03:51:48;100443.06;;;-0.20;99.81
29907;BME280;16776;50.958;10.994;2023-02-14T03:54:18;100438.78;;;-0.21;99.57
29907;BME280;16776;50.958;10.994;2023-02-14T03:56:49;100439.59;;;-0.22;99.78
29907;BME280;16776;50.958;10.994;2023-02-14T03:59:20;100429.19;;;-0.28;100.00
29907;BME280;16776;50.958;10.994;2023-02-14T04:01:49;100435.97;;;-0.27;99.57
29907;BME280;16776;50.958;10.994;2023-02-14T04:04:22;100439.31;;;-0.28;99.68
29907;BME280;16776;50.958;10.994;2023-02-14T04:06:52;100449.19;;;-0.33;99.57
29907;BME280;16776;50.958;10.994;2023-02-14T04:09:20;100436.50;;;-0.34;99.53
29907;BME280;16776;50.958;10.994;2023-02-14T04:11:47;100443.84;;;-0.39;99.63
29907;BME280;16776;50.958;10.994;2023-02-14T04:14:15;100439.53;;;-0.41;99.82
29907;BME280;16776;50.958;10.994;2023-02-14T04:16:41;100441.03;;;-0.45;99.52
29907;BME280;16776;50.958;10.994;2023-02-14T04:19:31;100433.25;;;-0.49;99.20
29907;BME280;16776;50.958;10.994;2023-02-14T04:21:57;100437.25;;;-0.54;99.39
29907;BME280;16776;50.958;10.994;2023-02-14T04:24:26;100438.03;;;-0.56;99.41
29907;BME280;16776;50.958;10.994;2023-02-14T04:26:52;100434.41;;;-0.61;99.63
29907;BME280;16776;50.958;10.994;2023-02-14T04:29:35;100442.66;;;-0.65;99.13
29907;BME280;16776;50.958;10.994;2023-02-14T04:32:03;100431.53;;;-0.68;99.36
29907;BME280;16776;50.958;10.994;2023-02-14T04:34:30;100442.34;;;-0.71;99.27
29907;BME280;16776;50.958;10.994;2023-02-14T04:36:56;100433.84;;;-0.73;99.29
29907;BME280;16776;50.958;10.994;2023-02-14T04:39:23;100440.47;;;-0.75;99.50
29907;BME280;16776;50.958;10.994;2023-02-14T04:41:51;100437.97;;;-0.75;99.71
29907;BME280;16776;50.958;10.994;2023-02-14T04:44:18;100431.94;;;-0.77;99.91
29907;BME280;16776;50.958;10.994;2023-02-14T04:46:45;100427.63;;;-0.79;99.73
29907;BME280;16776;50.958;10.994;2023-02-14T04:49:11;100426.69;;;-0.81;99.54
29907;BME280;16776;50.958;10.994;2023-02-14T04:51:38;100424.16;;;-0.81;99.85
29907;BME280;16776;50.958;10.994;2023-02-14T04:54:06;100430.09;;;-0.81;100.00
29907;BME280;16776;50.958;10.994;2023-02-14T04:56:33;100419.00;;;-0.83;99.98
29907;BME280;16776;50.958;10.994;2023-02-14T04:59:01;100421.69;;;-0.80;100.00
29907;BME280;16776;50.958;10.994;2023-02-14T05:01:28;100417.50;;;-0.79;100.00
29907;BME280;16776;50.958;10.994;2023-02-14T05:03:54;100417.63;;;-0.76;100.00
29907;BME280;16776;50.958;10.994;2023-02-14T05:06:21;100417.88;;;-0.72;99.81
29907;BME280;16776;50.958;10.994;2023-02-14T05:08:47;100412.16;;;-0.68;100.00
29907;BME280;16776;50.958;10.994;2023-02-14T05:11:14;100413.22;;;-0.63;100.00
29907;BME280;16776;50.958;10.994;2023-02-14T05:13:40;100410.84;;;-0.60;100.00
29907;BME280;16776;50.958;10.994;2023-02-14T05:16:09;100409.31;;;-0.56;100.00
29907;BME280;16776;50.958;10.994;2023-02-14T05:18:35;100406.06;;;-0.53;100.00
29907;BME280;16776;50.958;10.994;2023-02-14T05:21:02;100407.16;;;-0.48;100.00
29907;BME280;16776;50.958;10.994;2023-02-14T05:23:29;100404.78;;;-0.26;100.00
29907;BME280;16776;50.958;10.994;2023-02-14T05:25:55;100398.56;;;0.04;100.00
29907;BME280;16776;50.958;10.994;2023-02-14T05:28:22;100406.13;;;0.43;100.00
29907;BME280;16776;50.958;10.994;2023-02-14T05:30:49;100403.88;;;0.70;100.00
29907;BME280;16776;50.958;10.994;2023-02-14T05:33:18;100406.41;;;0.89;100.00
29907;BME280;16776;50.958;10.994;2023-02-14T05:35:44;100409.22;;;0.96;100.00
29907;BME280;16776;50.958;10.994;2023-02-14T05:38:11;100408.41;;;0.97;100.00
29907;BME280;16776;50.958;10.994;2023-02-14T05:40:38;100408.25;;;0.93;99.58
29907;BME280;16776;50.958;10.994;2023-02-14T05:43:04;100395.22;;;0.85;99.32
29907;BME280;16776;50.958;10.994;2023-02-14T05:45:31;100397.38;;;0.76;99.00
29907;BME280;16776;50.958;10.994;2023-02-14T05:47:58;100400.41;;;0.68;98.84
29907;BME280;16776;50.958;10.994;2023-02-14T05:50:26;100400.97;;;0.60;98.41
29907;BME280;16776;50.958;10.994;2023-02-14T05:52:52;100408.13;;;0.50;98.53
29907;BME280;16776;50.958;10.994;2023-02-14T05:55:19;100414.47;;;0.40;98.25
29907;BME280;16776;50.958;10.994;2023-02-14T05:57:46;100408.94;;;0.30;98.46
29907;BME280;16776;50.958;10.994;2023-02-14T06:00:13;100413.69;;;0.22;97.89
29907;BME280;16776;50.958;10.994;2023-02-14T06:02:40;100410.69;;;0.11;98.24
29907;BME280;16776;50.958;10.994;2023-02-14T06:05:07;100411.22;;;0.04;98.68
29907;BME280;16776;50.958;10.994;2023-02-14T06:07:35;100409.22;;;-0.03;98.15
29907;BME280;16776;50.958;10.994;2023-02-14T06:10:01;100417.25;;;-0.11;98.54
29907;BME280;16776;50.958;10.994;2023-02-14T06:12:28;100422.94;;;-0.17;98.37
29907;BME280;16776;50.958;10.994;2023-02-14T06:14:54;100425.19;;;-0.23;98.33
29907;BME280;16776;50.958;10.994;2023-02-14T06:17:21;100429.19;;;-0.28;98.35
29907;BME280;16776;50.958;10.994;2023-02-14T06:19:48;100430.63;;;-0.33;98.11
29907;BME280;16776;50.958;10.994;2023-02-14T06:22:14;100433.72;;;-0.39;98.29
29907;BME280;16776;50.958;10.994;2023-02-14T06:24:42;100428.53;;;-0.42;98.38
29907;BME280;16776;50.958;10.994;2023-02-14T06:27:09;100430.78;;;-0.48;98.16
29907;BME280;16776;50.958;10.994;2023-02-14T06:29:36;100435.69;;;-0.51;98.42
29907;BME280;16776;50.958;10.994;2023-02-14T06:32:03;100432.09;;;-0.56;98.42
29907;BME280;16776;50.958;10.994;2023-02-14T06:34:31;100414.03;;;-0.64;98.19
29907;BME280;16776;50.958;10.994;2023-02-14T06:36:57;100424.22;;;-0.62;98.67
29907;BME280;16776;50.958;10.994;2023-02-14T06:39:24;100417.06;;;-0.71;98.27
29907;BME280;16776;50.958;10.994;2023-02-14T06:41:52;100424.00;;;-0.67;98.19
29907;BME280;16776;50.958;10.994;2023-02-14T06:44:19;100422.97;;;-0.70;98.35
29907;BME280;16776;50.958;10.994;2023-02-14T06:46:45;100418.66;;;-0.73;98.21
29907;BME280;16776;50.958;10.994;2023-02-14T06:49:12;100422.00;;;-0.74;98.82
29907;BME280;16776;50.958;10.994;2023-02-14T06:51:39;100422.84;;;-0.73;99.29
29907;BME280;16776;50.958;10.994;2023-02-14T06:54:06;100420.34;;;-0.73;99.26
29907;BME280;16776;50.958;10.994;2023-02-14T06:56:32;100424.66;;;-0.71;99.12
29907;BME280;16776;50.958;10.994;2023-02-14T06:59:00;100414.81;;;-0.65;99.57
29907;BME280;16776;50.958;10.994;2023-02-14T07:01:27;100419.25;;;-0.61;99.81
29907;BME280;16776;50.958;10.994;2023-02-14T07:03:54;100425.44;;;-0.54;100.00
29907;BME280;16776;50.958;10.994;2023-02-14T07:06:20;100430.00;;;-0.47;99.90
29907;BME280;16776;50.958;10.994;2023-02-14T07:08:47;100422.69;;;-0.41;99.65
29907;BME280;16776;50.958;10.994;2023-02-14T07:11:14;100421.22;;;-0.36;99.70
29907;BME280;16776;50.958;10.994;2023-02-14T07:13:40;100423.25;;;-0.29;100.00
29907;BME280;16776;50.958;10.994;2023-02-14T07:16:09;100422.81;;;-0.20;100.00
29907;BME280;16776;50.958;10.994;2023-02-14T07:18:35;100414.66;;;-0.13;100.00
29907;BME280;16776;50.958;10.994;2023-02-14T07:21:02;100418.41;;;-0.05;100.00
29907;BME280;16776;50.958;10.994;2023-02-14T07:23:29;100421.34;;;0.04;100.00
29907;BME280;16776;50.958;10.994;2023-02-14T07:25:55;100413.41;;;0.16;100.00
29907;BME280;16776;50.958;10.994;2023-02-14T07:28:22;100417.28;;;0.27;100.00
29907;BME280;16776;50.958;10.994;2023-02-14T07:30:48;100420.31;;;0.39;100.00
29907;BME280;16776;50.958;10.994;2023-02-14T07:33:16;100416.72;;;0.53;100.00
29907;BME280;16776;50.958;10.994;2023-02-14T07:35:43;100421.56;;;0.68;100.00
29907;BME280;16776;50.958;10.994;2023-02-14T07:38:10;100418.03;;;0.85;100.00
29907;BME280;16776;50.958;10.994;2023-02-14T07:40:36;100423.78;;;1.00;100.00
29907;BME280;16776;50.958;10.994;2023-02-14T07:43:03;100420.84;;;1.12;100.00
29907;BME280;16776;50.958;10.994;2023-02-14T07:45:29;100411.19;;;1.24;100.00
29907;BME280;16776;50.958;10.994;2023-02-14T07:47:56;100409.19;;;1.38;100.00
29907;BME280;16776;50.958;10.994;2023-02-14T07:50:27;100408.91;;;1.53;100.00
29907;BME280;16776;50.958;10.994;2023-02-14T07:52:56;100407.50;;;1.61;100.00
29907;BME280;16776;50.958;10.994;2023-02-14T07:55:22;100411.28;;;1.70;100.00
29907;BME280;16776;50.958;10.994;2023-02-14T07:57:51;100409.84;;;1.77;100.00
29907;BME280;16776;50.958;10.994;2023-02-14T08:00:18;100408.47;;;1.87;99.94
29907;BME280;16776;50.958;10.994;2023-02-14T08:02:45;100406.28;;;1.96;99.93
29907;BME280;16776;50.958;10.994;2023-02-14T08:05:13;100405.69;;;2.03;100.00
29907;BME280;16776;50.958;10.994;2023-02-14T08:07:41;100403.44;;;2.10;99.61
29907;BME280;16776;50.958;10.994;2023-02-14T08:10:09;100401.94;;;2.17;100.00
29907;BME280;16776;50.958;10.994;2023-02-14T08:12:35;100399.75;;;2.26;100.00
29907;BME280;16776;50.958;10.994;2023-02-14T08:15:19;100392.53;;;2.38;100.00
29907;BME280;16776;50.958;10.994;2023-02-14T08:18:06;100398.25;;;2.56;100.00
29907;BME280;16776;50.958;10.994;2023-02-14T08:20:32;100391.84;;;2.68;100.00
29907;BME280;16776;50.958;10.994;2023-02-14T08:23:00;100395.69;;;2.82;100.00
29907;BME280;16776;50.958;10.994;2023-02-14T08:25:27;100390.97;;;2.92;100.00
29907;BME280;16776;50.958;10.994;2023-02-14T08:27:54;100393.03;;;3.04;100.00
29907;BME280;16776;50.958;10.994;2023-02-14T08:30:21;100387.47;;;3.16;100.00
29907;BME280;16776;50.958;10.994;2023-02-14T08:32:47;100385.44;;;3.31;100.00
29907;BME280;16776;50.958;10.994;2023-02-14T08:35:14;100383.38;;;3.48;100.00
29907;BME280;16776;50.958;10.994;2023-02-14T08:37:41;100389.81;;;3.65;100.00
29907;BME280;16776;50.958;10.994;2023-02-14T08:40:09;100387.84;;;3.83;100.00
29907;BME280;16776;50.958;10.994;2023-02-14T08:42:36;100394.97;;;3.95;100.00
29907;BME280;16776;50.958;10.994;2023-02-14T08:45:03;100391.94;;;4.08;100.00
29907;BME280;16776;50.958;10.994;2023-02-14T08:47:30;100389.75;;;4.21;100.00
29907;BME280;16776;50.958;10.994;2023-02-14T08:50:00;100391.84;;;4.36;100.00
29907;BME280;16776;50.958;10.994;2023-02-14T08:52:26;100387.09;;;4.50;100.00
29907;BME280;16776;50.958;10.994;2023-02-14T08:54:53;100391.78;;;4.66;100.00
29907;BME280;16776;50.958;10.994;2023-02-14T08:57:21;100387.09;;;4.83;100.00
29907;BME280;16776;50.958;10.994;2023-02-14T08:59:47;100385.78;;;4.98;100.00
29907;BME280;16776;50.958;10.994;2023-02-14T09:02:14;100371.56;;;5.10;100.00
29907;BME280;16776;50.958;10.994;2023-02-14T09:04:41;100384.00;;;5.32;100.00
29907;BME280;16776;50.958;10.994;2023-02-14T09:07:08;100383.41;;;5.43;100.00
29907;BME280;16776;50.958;10.994;2023-02-14T09:09:34;100379.38;;;5.53;100.00
29907;BME280;16776;50.958;10.994;2023-02-14T09:12:02;100374.53;;;5.65;100.00
29907;BME280;16776;50.958;10.994;2023-02-14T09:14:33;100378.28;;;5.82;100.00
29907;BME280;16776;50.958;10.994;2023-02-14T09:17:00;100379.38;;;5.94;100.00
29907;BME280;16776;50.958;10.994;2023-02-14T09:19:29;100376.25;;;6.08;99.75
29907;BME280;16776;50.958;10.994;2023-02-14T09:21:56;100378.28;;;6.24;100.00
29907;BME280;16776;50.958;10.994;2023-02-14T09:24:22;100377.75;;;6.42;99.68
29907;BME280;16776;50.958;10.994;2023-02-14T09:26:49;100372.03;;;6.57;99.82
29907;BME280;16776;50.958;10.994;2023-02-14T09:29:15;100369.72;;;6.72;99.09
29907;BME280;16776;50.958;10.994;2023-02-14T09:31:44;100362.25;;;6.84;99.41
29907;BME280;16776;50.958;10.994;2023-02-14T09:34:10;100359.91;;;6.95;99.89
29907;BME280;16776;50.958;10.994;2023-02-14T09:36:37;100365.19;;;7.07;98.89
29907;BME280;16776;50.958;10.994;2023-02-14T09:39:21;100359.41;;;7.20;99.65
29907;BME280;16776;50.958;10.994;2023-02-14T09:41:58;100357.97;;;7.39;98.86
29907;BME280;16776;50.958;10.994;2023-02-14T09:44:30;100340.06;;;7.40;98.84
29907;BME280;16776;50.958;10.994;2023-02-14T09:47:05;100350.63;;;7.65;99.24
29907;BME280;16776;50.958;10.994;2023-02-14T09:49:38;100356.75;;;7.76;99.29
29907;BME280;16776;50.958;10.994;2023-02-14T09:52:08;100337.97;;;7.78;98.63
29907;BME280;16776;50.958;10.994;2023-02-14T09:54:38;100353.59;;;7.98;98.26
29907;BME280;16776;50.958;10.994;2023-02-14T09:57:10;100347.72;;;8.08;98.30
29907;BME280;16776;50.958;10.994;2023-02-14T09:59:42;100345.28;;;8.17;97.74
29907;BME280;16776;50.958;10.994;2023-02-14T10:02:32;100347.06;;;8.26;97.72
29907;BME280;16776;50.958;10.994;2023-02-14T10:05:07;100343.66;;;8.27;97.72
29907;BME280;16776;50.958;10.994;2023-02-14T10:07:43;100342.00;;;8.32;97.92
29907;BME280;16776;50.958;10.994;2023-02-14T10:10:21;100344.63;;;8.40;98.09
29907;BME280;16776;50.958;10.994;2023-02-14T10:12:50;100333.59;;;8.48;99.13
29907;BME280;16776;50.958;10.994;2023-02-14T10:15:22;100332.78;;;8.54;97.94
29907;BME280;16776;50.958;10.994;2023-02-14T10:17:58;100322.56;;;8.60;98.25
29907;BME280;16776;50.958;10.994;2023-02-14T10:20:28;100342.47;;;8.82;98.38
29907;BME280;16776;50.958;10.994;2023-02-14T10:23:03;100332.28;;;8.99;98.01
29907;BME280;16776;50.958;10.994;2023-02-14T10:25:36;100328.94;;;9.11;97.43
29907;BME280;16776;50.958;10.994;2023-02-14T10:28:09;100319.53;;;9.16;97.64
29907;BME280;16776;50.958;10.994;2023-02-14T10:30:39;100322.22;;;9.31;97.19
29907;BME280;16776;50.958;10.994;2023-02-14T10:33:14;100329.16;;;9.42;97.08
29907;BME280;16776;50.958;10.994;2023-02-14T10:35:46;100322.31;;;9.49;97.13
29907;BME280;16776;50.958;10.994;2023-02-14T10:38:24;100323.22;;;9.57;96.76
29907;BME280;16776;50.958;10.994;2023-02-14T10:41:04;100319.00;;;9.65;96.14
29907;BME280;16776;50.958;10.994;2023-02-14T10:43:40;100319.84;;;9.69;96.35
29907;BME280;16776;50.958;10.994;2023-02-14T10:46:15;100316.41;;;9.73;96.26
29907;BME280;16776;50.958;10.994;2023-02-14T10:48:51;100306.16;;;9.77;95.97
29907;BME280;16776;50.958;10.994;2023-02-14T10:51:26;100313.88;;;9.79;96.63
29907;BME280;16776;50.958;10.994;2023-02-14T10:54:08;100304.44;;;9.85;96.50
29907;BME280;16776;50.958;10.994;2023-02-14T10:56:40;100308.75;;;9.88;96.75
29907;BME280;16776;50.958;10.994;2023-02-14T10:59:19;100307.94;;;10.00;96.28
29907;BME280;16776;50.958;10.994;2023-02-14T11:01:49;100310.50;;;10.06;96.30
29907;BME280;16776;50.958;10.994;2023-02-14T11:04:19;100302.81;;;10.15;96.62
29907;BME280;16776;50.958;10.994;2023-02-14T11:06:47;100300.25;;;10.21;96.71
29907;BME280;16776;50.958;10.994;2023-02-14T11:09:14;100301.97;;;10.33;96.38
29907;BME280;16776;50.958;10.994;2023-02-14T11:11:44;100306.28;;;10.46;96.51
29907;BME280;16776;50.958;10.994;2023-02-14T11:14:21;100303.75;;;10.61;95.71
29907;BME280;16776;50.958;10.994;2023-02-14T11:16:49;100294.31;;;10.60;96.23
29907;BME280;16776;50.958;10.994;2023-02-14T11:19:23;100293.44;;;10.79;96.17
29907;BME280;16776;50.958;10.994;2023-02-14T11:21:52;100295.13;;;10.82;96.21
29907;BME280;16776;50.958;10.994;2023-02-14T11:24:25;100298.56;;;10.93;95.37
29907;BME280;16776;50.958;10.994;2023-02-14T11:26:54;100297.72;;;10.92;95.40
29907;BME280;16776;50.958;10.994;2023-02-14T11:29:26;100297.72;;;11.00;95.32
29907;BME280;16776;50.958;10.994;2023-02-14T11:31:53;100291.69;;;10.99;95.39
29907;BME280;16776;50.958;10.994;2023-02-14T11:34:43;100294.22;;;11.15;96.23
29907;BME280;16776;50.958;10.994;2023-02-14T11:37:25;100298.50;;;11.20;95.54
29907;BME280;16776;50.958;10.994;2023-02-14T11:39:54;100283.03;;;11.14;95.20
29907;BME280;16776;50.958;10.994;2023-02-14T11:42:34;100283.00;;;11.26;94.72
29907;BME280;16776;50.958;10.994;2023-02-14T11:45:04;100283.03;;;11.20;95.41
29907;BME280;16776;50.958;10.994;2023-02-14T11:47:33;100278.72;;;11.22;95.23
29907;BME280;16776;50.958;10.994;2023-02-14T11:50:04;100278.69;;;11.28;95.30
29907;BME280;16776;50.958;10.994;2023-02-14T11:52:32;100283.84;;;11.28;94.92
29907;BME280;16776;50.958;10.994;2023-02-14T11:54:59;100276.13;;;11.30;95.23
29907;BME280;16776;50.958;10.994;2023-02-14T11:57:28;100274.38;;;11.33;94.86
29907;BME280;16776;50.958;10.994;2023-02-14T11:59:57;100264.94;;;11.28;95.16
29907;BME280;16776;50.958;10.994;2023-02-14T12:02:30;100277.78;;;11.40;94.62
29907;BME280;16776;50.958;10.994;2023-02-14T12:04:59;100273.53;;;11.34;95.04
29907;BME280;16776;50.958;10.994;2023-02-14T12:07:30;100263.19;;;11.40;94.92
29907;BME280;16776;50.958;10.994;2023-02-14T12:10:17;100269.19;;;11.44;94.41
29907;BME280;16776;50.958;10.994;2023-02-14T12:12:52;100224.56;;;11.22;94.34
29907;BME280;16776;50.958;10.994;2023-02-14T12:15:28;100252.84;;;11.47;94.69
29907;BME280;16776;50.958;10.994;2023-02-14T12:18:20;100253.69;;;11.47;94.91
29907;BME280;16776;50.958;10.994;2023-02-14T12:20:54;100251.97;;;11.48;94.32
29907;BME280;16776;50.958;10.994;2023-02-14T12:23:25;100244.22;;;11.48;94.29
29907;BME280;16776;50.958;10.994;2023-02-14T12:25:59;100238.22;;;11.47;94.48
29907;BME280;16776;50.958;10.994;2023-02-14T12:28:31;100233.06;;;11.47;94.59
29907;BME280;16776;50.958;10.994;2023-02-14T12:31:07;100238.22;;;11.50;94.32
29907;BME280;16776;50.958;10.994;2023-02-14T12:33:34;100233.94;;;11.44;94.55
29907;BME280;16776;50.958;10.994;2023-02-14T12:36:08;100230.44;;;11.52;94.90
29907;BME280;16776;50.958;10.994;2023-02-14T12:38:48;100227.88;;;11.53;94.33
29907;BME280;16776;50.958;10.994;2023-02-14T12:41:27;100231.34;;;11.51;94.11
29907;BME280;16776;50.958;10.994;2023-02-14T12:44:02;100226.13;;;11.52;94.28
29907;BME280;16776;50.958;10.994;2023-02-14T12:46:58;100225.25;;;11.59;94.33
29907;BME280;16776;50.958;10.994;2023-02-14T12:49:50;100218.41;;;11.60;94.82
29907;BME280;16776;50.958;10.994;2023-02-14T12:52:37;100218.38;;;11.58;94.56
29907;BME280;16776;50.958;10.994;2023-02-14T12:58:04;100218.41;;;11.55;94.69
29907;BME280;16776;50.958;10.994;2023-02-14T13:00:42;100206.34;;;11.57;94.55
29907;BME280;16776;50.958;10.994;2023-02-14T13:03:36;100203.78;;;11.62;95.11
29907;BME280;16776;50.958;10.994;2023-02-14T13:06:13;100196.88;;;11.59;94.32
29907;BME280;16776;50.958;10.994;2023-02-14T13:08:53;100199.47;;;11.62;94.33
29907;BME280;16776;50.958;10.994;2023-02-14T13:11:35;100194.31;;;11.64;93.94
29907;BME280;16776;50.958;10.994;2023-02-14T13:14:13;100197.75;;;11.63;93.99